sensor_id;sensor_type;location;lat;lon;timestamp;P1;durP1;ratioP1;P2;durP2;ratioP2
45548;SDS011;31270;48.328;10.096;2022-07-22T00:00:29;14.50;;;11.00;;
45548;SDS011;31270;48.328;10.096;2022-07-22T00:02:55;13.13;;;11.45;;
45548;SDS011;31270;48.328;10.096;2022-07-22T00:05:21;13.85;;;11.77;;
45548;SDS011;31270;48.328;10.096;2022-07-22T00:07:47;13.60;;;11.00;;
45548;SDS011;31270;48.328;10.096;2022-07-22T00:10:12;14.60;;;10.95;;
45548;SDS011;31270;48.328;10.096;2022-07-22T00:12:38;12.80;;;10.40;;
45548;SDS011;31270;48.328;10.096;2022-07-22T00:15:05;13.15;;;11.68;;
45548;SDS011;31270;48.328;10.096;2022-07-22T00:17:32;15.80;;;12.15;;
45548;SDS011;31270;48.328;10.096;2022-07-22T00:19:57;18.33;;;13.07;;
45548;SDS011;31270;48.328;10.096;2022-07-22T00:22:23;12.93;;;11.55;;
45548;SDS011;31270;48.328;10.096;2022-07-22T00:24:48;18.40;;;14.98;;
45548;SDS011;31270;48.328;10.096;2022-07-22T00:27:14;21.27;;;18.27;;
45548;SDS011;31270;48.328;10.096;2022-07-22T00:29:40;18.75;;;16.00;;
45548;SDS011;31270;48.328;10.096;2022-07-22T00:32:05;14.55;;;12.95;;
45548;SDS011;31270;48.328;10.096;2022-07-22T00:34:31;14.32;;;12.52;;
45548;SDS011;31270;48.328;10.096;2022-07-22T00:36:57;14.20;;;11.52;;
45548;SDS011;31270;48.328;10.096;2022-07-22T00:39:22;13.43;;;12.02;;
45548;SDS011;31270;48.328;10.096;2022-07-22T00:41:48;14.65;;;12.20;;
45548;SDS011;31270;48.328;10.096;2022-07-22T00:44:14;15.05;;;11.80;;
45548;SDS011;31270;48.328;10.096;2022-07-22T00:46:40;15.45;;;12.27;;
45548;SDS011;31270;48.328;10.096;2022-07-22T00:49:06;14.32;;;12.02;;
45548;SDS011;31270;48.328;10.096;2022-07-22T00:51:34;12.90;;;11.57;;
45548;SDS011;31270;48.328;10.096;2022-07-22T00:54:01;12.43;;;11.13;;
45548;SDS011;31270;48.328;10.096;2022-07-22T00:56:29;12.85;;;11.15;;
45548;SDS011;31270;48.328;10.096;2022-07-22T00:58:58;13.10;;;11.32;;
45548;SDS011;31270;48.328;10.096;2022-07-22T01:01:27;14.60;;;11.77;;
45548;SDS011;31270;48.328;10.096;2022-07-22T01:03:53;12.68;;;11.38;;
45548;SDS011;31270;48.328;10.096;2022-07-22T01:06:19;14.35;;;11.75;;
45548;SDS011;31270;48.328;10.096;2022-07-22T01:08:44;12.52;;;11.23;;
45548;SDS011;31270;48.328;10.096;2022-07-22T01:11:11;14.45;;;11.85;;
45548;SDS011;31270;48.328;10.096;2022-07-22T01:13:39;14.88;;;13.00;;
45548;SDS011;31270;48.328;10.096;2022-07-22T01:16:05;14.93;;;11.93;;
45548;SDS011;31270;48.328;10.096;2022-07-22T01:18:32;15.90;;;13.52;;
45548;SDS011;31270;48.328;10.096;2022-07-22T01:20:58;18.05;;;14.45;;
45548;SDS011;31270;48.328;10.096;2022-07-22T01:23:24;18.23;;;14.60;;
45548;SDS011;31270;48.328;10.096;2022-07-22T01:25:49;19.30;;;14.93;;
45548;SDS011;31270;48.328;10.096;2022-07-22T01:28:15;16.63;;;14.30;;
45548;SDS011;31270;48.328;10.096;2022-07-22T01:30:41;15.88;;;14.18;;
45548;SDS011;31270;48.328;10.096;2022-07-22T01:33:07;17.35;;;14.30;;
45548;SDS011;31270;48.328;10.096;2022-07-22T01:35:32;17.25;;;14.35;;
45548;SDS011;31270;48.328;10.096;2022-07-22T01:37:58;15.18;;;13.57;;
45548;SDS011;31270;48.328;10.096;2022-07-22T01:40:24;17.77;;;13.18;;
45548;SDS011;31270;48.328;10.096;2022-07-22T01:42:50;18.35;;;13.95;;
45548;SDS011;31270;48.328;10.096;2022-07-22T01:45:15;15.15;;;13.55;;
45548;SDS011;31270;48.328;10.096;2022-07-22T01:47:41;15.80;;;13.10;;
45548;SDS011;31270;48.328;10.096;2022-07-22T01:50:07;16.13;;;12.90;;
45548;SDS011;31270;48.328;10.096;2022-07-22T01:52:35;18.25;;;13.48;;
45548;SDS011;31270;48.328;10.096;2022-07-22T01:55:01;17.48;;;14.45;;
45548;SDS011;31270;48.328;10.096;2022-07-22T01:57:27;17.38;;;13.98;;
45548;SDS011;31270;48.328;10.096;2022-07-22T01:59:53;15.98;;;13.27;;
45548;SDS011;31270;48.328;10.096;2022-07-22T02:02:18;15.55;;;13.90;;
45548;SDS011;31270;48.328;10.096;2022-07-22T02:04:44;17.08;;;14.75;;
45548;SDS011;31270;48.328;10.096;2022-07-22T02:07:09;16.48;;;14.30;;
45548;SDS011;31270;48.328;10.096;2022-07-22T02:09:35;16.50;;;13.75;;
45548;SDS011;31270;48.328;10.096;2022-07-22T02:12:00;16.73;;;13.30;;
45548;SDS011;31270;48.328;10.096;2022-07-22T02:14:26;16.02;;;13.75;;
45548;SDS011;31270;48.328;10.096;2022-07-22T02:16:52;15.85;;;13.45;;
45548;SDS011;31270;48.328;10.096;2022-07-22T02:19:17;16.33;;;14.00;;
45548;SDS011;31270;48.328;10.096;2022-07-22T02:21:43;15.82;;;13.65;;
45548;SDS011;31270;48.328;10.096;2022-07-22T02:24:09;17.63;;;13.25;;
45548;SDS011;31270;48.328;10.096;2022-07-22T02:26:34;15.90;;;13.35;;
45548;SDS011;31270;48.328;10.096;2022-07-22T02:29:00;17.48;;;13.02;;
45548;SDS011;31270;48.328;10.096;2022-07-22T02:31:25;13.30;;;11.90;;
45548;SDS011;31270;48.328;10.096;2022-07-22T02:33:51;15.75;;;12.40;;
45548;SDS011;31270;48.328;10.096;2022-07-22T02:36:17;14.23;;;12.73;;
45548;SDS011;31270;48.328;10.096;2022-07-22T02:38:42;15.20;;;13.02;;
45548;SDS011;31270;48.328;10.096;2022-07-22T02:41:08;16.15;;;12.57;;
45548;SDS011;31270;48.328;10.096;2022-07-22T02:43:34;14.35;;;12.25;;
45548;SDS011;31270;48.328;10.096;2022-07-22T02:45:59;15.18;;;11.93;;
45548;SDS011;31270;48.328;10.096;2022-07-22T02:48:25;17.25;;;11.95;;
45548;SDS011;31270;48.328;10.096;2022-07-22T02:50:51;13.15;;;11.20;;
45548;SDS011;31270;48.328;10.096;2022-07-22T02:53:16;14.75;;;12.32;;
45548;SDS011;31270;48.328;10.096;2022-07-22T02:55:42;18.65;;;12.77;;
45548;SDS011;31270;48.328;10.096;2022-07-22T02:58:07;16.65;;;12.63;;
45548;SDS011;31270;48.328;10.096;2022-07-22T03:00:34;15.32;;;13.50;;
45548;SDS011;31270;48.328;10.096;2022-07-22T03:03:03;14.30;;;12.55;;
45548;SDS011;31270;48.328;10.096;2022-07-22T03:05:29;14.85;;;12.68;;
45548;SDS011;31270;48.328;10.096;2022-07-22T03:07:55;18.50;;;14.18;;
45548;SDS011;31270;48.328;10.096;2022-07-22T03:10:20;16.20;;;13.45;;
45548;SDS011;31270;48.328;10.096;2022-07-22T03:12:46;14.85;;;13.25;;
45548;SDS011;31270;48.328;10.096;2022-07-22T03:15:11;15.88;;;13.40;;
45548;SDS011;31270;48.328;10.096;2022-07-22T03:17:37;15.60;;;13.02;;
45548;SDS011;31270;48.328;10.096;2022-07-22T03:20:03;15.63;;;13.55;;
45548;SDS011;31270;48.328;10.096;2022-07-22T03:22:30;18.15;;;12.90;;
45548;SDS011;31270;48.328;10.096;2022-07-22T03:24:56;15.57;;;13.00;;
45548;SDS011;31270;48.328;10.096;2022-07-22T03:27:22;15.05;;;13.13;;
45548;SDS011;31270;48.328;10.096;2022-07-22T03:29:47;14.93;;;13.40;;
45548;SDS011;31270;48.328;10.096;2022-07-22T03:32:13;15.63;;;14.00;;
45548;SDS011;31270;48.328;10.096;2022-07-22T03:34:38;15.25;;;13.50;;
45548;SDS011;31270;48.328;10.096;2022-07-22T03:37:04;18.90;;;13.48;;
45548;SDS011;31270;48.328;10.096;2022-07-22T03:39:30;22.25;;;14.02;;
45548;SDS011;31270;48.328;10.096;2022-07-22T03:41:55;15.77;;;13.38;;
45548;SDS011;31270;48.328;10.096;2022-07-22T03:44:21;16.15;;;14.07;;
45548;SDS011;31270;48.328;10.096;2022-07-22T03:46:46;16.50;;;14.25;;
45548;SDS011;31270;48.328;10.096;2022-07-22T03:49:12;18.35;;;14.30;;
45548;SDS011;31270;48.328;10.096;2022-07-22T03:51:38;19.23;;;13.82;;
45548;SDS011;31270;48.328;10.096;2022-07-22T03:54:03;16.65;;;14.07;;
45548;SDS011;31270;48.328;10.096;2022-07-22T03:56:29;15.77;;;13.68;;
45548;SDS011;31270;48.328;10.096;2022-07-22T03:58:55;15.68;;;13.40;;
45548;SDS011;31270;48.328;10.096;2022-07-22T04:01:20;16.05;;;13.05;;
45548;SDS011;31270;48.328;10.096;2022-07-22T04:03:46;18.20;;;14.15;;
45548;SDS011;31270;48.328;10.096;2022-07-22T04:06:11;19.05;;;13.20;;
45548;SDS011;31270;48.328;10.096;2022-07-22T04:08:37;19.80;;;14.63;;
45548;SDS011;31270;48.328;10.096;2022-07-22T04:11:02;17.65;;;13.23;;
45548;SDS011;31270;48.328;10.096;2022-07-22T04:13:28;18.33;;;13.98;;
45548;SDS011;31270;48.328;10.096;2022-07-22T04:15:54;16.63;;;13.98;;
45548;SDS011;31270;48.328;10.096;2022-07-22T04:18:19;16.65;;;13.90;;
45548;SDS011;31270;48.328;10.096;2022-07-22T04:20:45;16.05;;;12.68;;
45548;SDS011;31270;48.328;10.096;2022-07-22T04:23:11;16.38;;;13.80;;
45548;SDS011;31270;48.328;10.096;2022-07-22T04:25:37;16.13;;;13.25;;
45548;SDS011;31270;48.328;10.096;2022-07-22T04:28:03;19.08;;;12.48;;
45548;SDS011;31270;48.328;10.096;2022-07-22T04:30:29;15.55;;;13.00;;
45548;SDS011;31270;48.328;10.096;2022-07-22T04:32:54;17.73;;;13.60;;
45548;SDS011;31270;48.328;10.096;2022-07-22T04:35:20;17.13;;;13.95;;
45548;SDS011;31270;48.328;10.096;2022-07-22T04:37:45;18.60;;;13.25;;
45548;SDS011;31270;48.328;10.096;2022-07-22T04:40:11;16.33;;;13.30;;
45548;SDS011;31270;48.328;10.096;2022-07-22T04:42:37;16.20;;;13.90;;
45548;SDS011;31270;48.328;10.096;2022-07-22T04:45:03;14.80;;;12.52;;
45548;SDS011;31270;48.328;10.096;2022-07-22T04:47:30;16.55;;;13.77;;
45548;SDS011;31270;48.328;10.096;2022-07-22T04:49:56;14.85;;;13.13;;
45548;SDS011;31270;48.328;10.096;2022-07-22T04:52:21;16.50;;;14.15;;
45548;SDS011;31270;48.328;10.096;2022-07-22T04:54:47;16.90;;;13.68;;
45548;SDS011;31270;48.328;10.096;2022-07-22T04:57:13;19.35;;;13.85;;
45548;SDS011;31270;48.328;10.096;2022-07-22T04:59:38;18.05;;;14.63;;
45548;SDS011;31270;48.328;10.096;2022-07-22T05:02:04;19.02;;;14.45;;
45548;SDS011;31270;48.328;10.096;2022-07-22T05:04:29;21.67;;;14.60;;
45548;SDS011;31270;48.328;10.096;2022-07-22T05:06:55;19.23;;;14.73;;
45548;SDS011;31270;48.328;10.096;2022-07-22T05:09:21;16.58;;;14.30;;
45548;SDS011;31270;48.328;10.096;2022-07-22T05:11:46;17.73;;;14.55;;
45548;SDS011;31270;48.328;10.096;2022-07-22T05:14:12;19.02;;;14.48;;
45548;SDS011;31270;48.328;10.096;2022-07-22T05:16:37;21.27;;;14.75;;
45548;SDS011;31270;48.328;10.096;2022-07-22T05:19:04;19.23;;;13.98;;
45548;SDS011;31270;48.328;10.096;2022-07-22T05:21:30;16.65;;;13.60;;
45548;SDS011;31270;48.328;10.096;2022-07-22T05:23:56;17.13;;;14.20;;
45548;SDS011;31270;48.328;10.096;2022-07-22T05:26:22;18.00;;;14.57;;
45548;SDS011;31270;48.328;10.096;2022-07-22T05:28:48;18.70;;;13.60;;
45548;SDS011;31270;48.328;10.096;2022-07-22T05:31:13;18.30;;;14.27;;
45548;SDS011;31270;48.328;10.096;2022-07-22T05:33:39;16.15;;;13.73;;
45548;SDS011;31270;48.328;10.096;2022-07-22T05:36:04;19.13;;;14.60;;
45548;SDS011;31270;48.328;10.096;2022-07-22T05:38:33;16.80;;;14.45;;
45548;SDS011;31270;48.328;10.096;2022-07-22T05:40:59;15.93;;;13.32;;
45548;SDS011;31270;48.328;10.096;2022-07-22T05:43:24;15.90;;;13.30;;
45548;SDS011;31270;48.328;10.096;2022-07-22T05:45:50;18.58;;;14.18;;
45548;SDS011;31270;48.328;10.096;2022-07-22T05:48:16;19.17;;;14.07;;
45548;SDS011;31270;48.328;10.096;2022-07-22T05:50:41;18.92;;;14.32;;
45548;SDS011;31270;48.328;10.096;2022-07-22T05:53:07;15.85;;;14.23;;
45548;SDS011;31270;48.328;10.096;2022-07-22T05:55:32;16.35;;;14.40;;
45548;SDS011;31270;48.328;10.096;2022-07-22T05:57:58;19.45;;;13.55;;
45548;SDS011;31270;48.328;10.096;2022-07-22T06:00:23;15.90;;;13.32;;
45548;SDS011;31270;48.328;10.096;2022-07-22T06:02:49;14.40;;;12.70;;
45548;SDS011;31270;48.328;10.096;2022-07-22T06:05:15;15.95;;;12.70;;
45548;SDS011;31270;48.328;10.096;2022-07-22T06:07:40;15.85;;;13.20;;
45548;SDS011;31270;48.328;10.096;2022-07-22T06:10:06;16.05;;;13.43;;
45548;SDS011;31270;48.328;10.096;2022-07-22T06:12:32;15.20;;;13.30;;
45548;SDS011;31270;48.328;10.096;2022-07-22T06:14:57;16.17;;;12.70;;
45548;SDS011;31270;48.328;10.096;2022-07-22T06:17:23;15.07;;;13.57;;
45548;SDS011;31270;48.328;10.096;2022-07-22T06:19:49;16.67;;;13.45;;
45548;SDS011;31270;48.328;10.096;2022-07-22T06:22:14;15.20;;;13.57;;
45548;SDS011;31270;48.328;10.096;2022-07-22T06:24:42;16.73;;;13.25;;
45548;SDS011;31270;48.328;10.096;2022-07-22T06:27:09;15.75;;;13.25;;
45548;SDS011;31270;48.328;10.096;2022-07-22T06:29:34;16.08;;;14.00;;
45548;SDS011;31270;48.328;10.096;2022-07-22T06:32:00;13.32;;;11.93;;
45548;SDS011;31270;48.328;10.096;2022-07-22T06:34:26;14.00;;;11.10;;
45548;SDS011;31270;48.328;10.096;2022-07-22T06:36:52;13.80;;;11.75;;
45548;SDS011;31270;48.328;10.096;2022-07-22T06:39:17;12.65;;;11.40;;
45548;SDS011;31270;48.328;10.096;2022-07-22T06:41:43;13.20;;;11.77;;
45548;SDS011;31270;48.328;10.096;2022-07-22T06:44:09;13.80;;;11.07;;
45548;SDS011;31270;48.328;10.096;2022-07-22T06:46:34;12.30;;;11.02;;
45548;SDS011;31270;48.328;10.096;2022-07-22T06:49:00;13.95;;;11.60;;
45548;SDS011;31270;48.328;10.096;2022-07-22T06:51:26;13.50;;;11.05;;
45548;SDS011;31270;48.328;10.096;2022-07-22T06:53:52;13.35;;;11.75;;
45548;SDS011;31270;48.328;10.096;2022-07-22T06:56:18;12.30;;;10.60;;
45548;SDS011;31270;48.328;10.096;2022-07-22T06:58:44;11.68;;;10.23;;
45548;SDS011;31270;48.328;10.096;2022-07-22T07:01:09;11.75;;;10.32;;
45548;SDS011;31270;48.328;10.096;2022-07-22T07:03:35;12.27;;;10.52;;
45548;SDS011;31270;48.328;10.096;2022-07-22T07:06:00;12.38;;;10.70;;
45548;SDS011;31270;48.328;10.096;2022-07-22T07:08:27;13.68;;;10.70;;
45548;SDS011;31270;48.328;10.096;2022-07-22T07:10:52;12.85;;;10.48;;
45548;SDS011;31270;48.328;10.096;2022-07-22T07:13:18;11.27;;;10.10;;
45548;SDS011;31270;48.328;10.096;2022-07-22T07:15:44;11.15;;;10.00;;
45548;SDS011;31270;48.328;10.096;2022-07-22T07:18:09;11.73;;;10.43;;
45548;SDS011;31270;48.328;10.096;2022-07-22T07:20:35;12.05;;;10.02;;
45548;SDS011;31270;48.328;10.096;2022-07-22T07:23:01;10.93;;;9.93;;
45548;SDS011;31270;48.328;10.096;2022-07-22T07:25:27;11.15;;;10.15;;
45548;SDS011;31270;48.328;10.096;2022-07-22T07:27:53;11.50;;;10.30;;
45548;SDS011;31270;48.328;10.096;2022-07-22T07:30:18;14.05;;;10.27;;
45548;SDS011;31270;48.328;10.096;2022-07-22T07:32:44;11.95;;;10.13;;
45548;SDS011;31270;48.328;10.096;2022-07-22T07:35:10;10.73;;;9.13;;
45548;SDS011;31270;48.328;10.096;2022-07-22T07:37:36;10.88;;;9.65;;
45548;SDS011;31270;48.328;10.096;2022-07-22T07:40:02;11.98;;;9.30;;
45548;SDS011;31270;48.328;10.096;2022-07-22T07:42:29;9.73;;;8.77;;
45548;SDS011;31270;48.328;10.096;2022-07-22T07:44:54;9.43;;;8.30;;
45548;SDS011;31270;48.328;10.096;2022-07-22T07:47:21;9.98;;;8.43;;
45548;SDS011;31270;48.328;10.096;2022-07-22T07:49:47;9.95;;;8.98;;
45548;SDS011;31270;48.328;10.096;2022-07-22T07:52:14;10.23;;;8.80;;
45548;SDS011;31270;48.328;10.096;2022-07-22T07:54:41;9.50;;;8.48;;
45548;SDS011;31270;48.328;10.096;2022-07-22T07:57:08;9.57;;;8.57;;
45548;SDS011;31270;48.328;10.096;2022-07-22T07:59:36;10.75;;;8.32;;
45548;SDS011;31270;48.328;10.096;2022-07-22T08:02:02;11.57;;;8.52;;
45548;SDS011;31270;48.328;10.096;2022-07-22T08:04:28;9.88;;;8.00;;
45548;SDS011;31270;48.328;10.096;2022-07-22T08:06:54;15.20;;;9.75;;
45548;SDS011;31270;48.328;10.096;2022-07-22T08:09:20;10.20;;;9.23;;
45548;SDS011;31270;48.328;10.096;2022-07-22T08:11:46;8.77;;;7.88;;
45548;SDS011;31270;48.328;10.096;2022-07-22T08:14:11;9.32;;;8.38;;
45548;SDS011;31270;48.328;10.096;2022-07-22T08:16:37;10.30;;;9.18;;
45548;SDS011;31270;48.328;10.096;2022-07-22T08:19:03;9.32;;;8.43;;
45548;SDS011;31270;48.328;10.096;2022-07-22T08:21:28;10.88;;;8.27;;
45548;SDS011;31270;48.328;10.096;2022-07-22T08:23:54;9.13;;;8.32;;
45548;SDS011;31270;48.328;10.096;2022-07-22T08:26:20;9.38;;;8.48;;
45548;SDS011;31270;48.328;10.096;2022-07-22T08:28:46;9.77;;;8.13;;
45548;SDS011;31270;48.328;10.096;2022-07-22T08:31:12;10.00;;;8.40;;
45548;SDS011;31270;48.328;10.096;2022-07-22T08:33:37;9.05;;;8.15;;
45548;SDS011;31270;48.328;10.096;2022-07-22T08:36:03;8.90;;;8.00;;
45548;SDS011;31270;48.328;10.096;2022-07-22T08:38:30;12.77;;;8.88;;
45548;SDS011;31270;48.328;10.096;2022-07-22T08:40:56;8.85;;;8.00;;
45548;SDS011;31270;48.328;10.096;2022-07-22T08:43:22;9.10;;;8.15;;
45548;SDS011;31270;48.328;10.096;2022-07-22T08:45:49;9.10;;;8.15;;
45548;SDS011;31270;48.328;10.096;2022-07-22T08:48:14;10.02;;;9.02;;
45548;SDS011;31270;48.328;10.096;2022-07-22T08:50:41;9.25;;;8.35;;
45548;SDS011;31270;48.328;10.096;2022-07-22T08:53:10;11.82;;;8.60;;
45548;SDS011;31270;48.328;10.096;2022-07-22T08:55:40;9.52;;;8.52;;
45548;SDS011;31270;48.328;10.096;2022-07-22T08:58:08;10.02;;;8.63;;
45548;SDS011;31270;48.328;10.096;2022-07-22T09:00:33;9.13;;;8.23;;
45548;SDS011;31270;48.328;10.096;2022-07-22T09:02:59;9.73;;;8.73;;
45548;SDS011;31270;48.328;10.096;2022-07-22T09:05:25;11.43;;;8.68;;
45548;SDS011;31270;48.328;10.096;2022-07-22T09:07:58;9.20;;;8.20;;
45548;SDS011;31270;48.328;10.096;2022-07-22T09:10:24;10.02;;;8.73;;
45548;SDS011;31270;48.328;10.096;2022-07-22T09:12:56;8.85;;;8.05;;
45548;SDS011;31270;48.328;10.096;2022-07-22T09:15:24;9.35;;;8.45;;
45548;SDS011;31270;48.328;10.096;2022-07-22T09:18:04;8.73;;;7.80;;
45548;SDS011;31270;48.328;10.096;2022-07-22T09:20:31;8.80;;;7.97;;
45548;SDS011;31270;48.328;10.096;2022-07-22T09:22:57;16.90;;;9.38;;
45548;SDS011;31270;48.328;10.096;2022-07-22T09:27:52;9.90;;;8.90;;
45548;SDS011;31270;48.328;10.096;2022-07-22T09:30:34;9.30;;;8.32;;
45548;SDS011;31270;48.328;10.096;2022-07-22T09:33:03;9.30;;;8.43;;
45548;SDS011;31270;48.328;10.096;2022-07-22T09:35:30;8.88;;;8.00;;
45548;SDS011;31270;48.328;10.096;2022-07-22T09:40:23;8.38;;;7.68;;
45548;SDS011;31270;48.328;10.096;2022-07-22T09:42:55;9.10;;;8.20;;
45548;SDS011;31270;48.328;10.096;2022-07-22T09:45:23;12.25;;;8.52;;
45548;SDS011;31270;48.328;10.096;2022-07-22T09:47:53;9.02;;;7.78;;
45548;SDS011;31270;48.328;10.096;2022-07-22T09:50:21;8.50;;;7.72;;
45548;SDS011;31270;48.328;10.096;2022-07-22T09:52:49;11.57;;;7.72;;
45548;SDS011;31270;48.328;10.096;2022-07-22T09:55:16;7.82;;;7.13;;
45548;SDS011;31270;48.328;10.096;2022-07-22T09:57:43;8.48;;;7.57;;
45548;SDS011;31270;48.328;10.096;2022-07-22T10:00:09;7.85;;;7.22;;
45548;SDS011;31270;48.328;10.096;2022-07-22T10:02:39;8.43;;;7.63;;
45548;SDS011;31270;48.328;10.096;2022-07-22T10:05:17;8.02;;;7.35;;
45548;SDS011;31270;48.328;10.096;2022-07-22T10:07:45;8.15;;;7.35;;
45548;SDS011;31270;48.328;10.096;2022-07-22T10:10:13;8.70;;;7.60;;
45548;SDS011;31270;48.328;10.096;2022-07-22T10:12:41;7.95;;;7.15;;
45548;SDS011;31270;48.328;10.096;2022-07-22T10:15:08;8.85;;;7.82;;
45548;SDS011;31270;48.328;10.096;2022-07-22T10:17:41;7.38;;;6.63;;
45548;SDS011;31270;48.328;10.096;2022-07-22T10:20:09;11.90;;;6.60;;
45548;SDS011;31270;48.328;10.096;2022-07-22T10:25:05;7.93;;;7.05;;
45548;SDS011;31270;48.328;10.096;2022-07-22T10:30:18;8.00;;;6.82;;
45548;SDS011;31270;48.328;10.096;2022-07-22T10:32:47;7.10;;;6.40;;
45548;SDS011;31270;48.328;10.096;2022-07-22T10:35:33;7.78;;;6.97;;
45548;SDS011;31270;48.328;10.096;2022-07-22T10:38:01;8.77;;;6.97;;
45548;SDS011;31270;48.328;10.096;2022-07-22T10:40:30;7.10;;;6.28;;
45548;SDS011;31270;48.328;10.096;2022-07-22T10:43:09;7.45;;;6.75;;
45548;SDS011;31270;48.328;10.096;2022-07-22T10:45:37;7.22;;;6.47;;
45548;SDS011;31270;48.328;10.096;2022-07-22T10:48:06;7.22;;;6.03;;
45548;SDS011;31270;48.328;10.096;2022-07-22T10:53:06;22.33;;;7.10;;
45548;SDS011;31270;48.328;10.096;2022-07-22T10:55:34;7.07;;;6.45;;
45548;SDS011;31270;48.328;10.096;2022-07-22T10:58:00;6.57;;;6.00;;
45548;SDS011;31270;48.328;10.096;2022-07-22T11:00:45;6.95;;;6.28;;
45548;SDS011;31270;48.328;10.096;2022-07-22T11:03:11;7.53;;;6.82;;
45548;SDS011;31270;48.328;10.096;2022-07-22T11:05:36;9.13;;;6.60;;
45548;SDS011;31270;48.328;10.096;2022-07-22T11:08:02;6.75;;;6.07;;
45548;SDS011;31270;48.328;10.096;2022-07-22T11:10:33;7.28;;;6.28;;
45548;SDS011;31270;48.328;10.096;2022-07-22T11:12:59;7.30;;;6.13;;
45548;SDS011;31270;48.328;10.096;2022-07-22T11:15:25;10.38;;;6.47;;
45548;SDS011;31270;48.328;10.096;2022-07-22T11:17:51;6.50;;;5.90;;
45548;SDS011;31270;48.328;10.096;2022-07-22T11:20:22;7.30;;;6.50;;
45548;SDS011;31270;48.328;10.096;2022-07-22T11:22:48;7.07;;;5.75;;
45548;SDS011;31270;48.328;10.096;2022-07-22T11:25:14;8.95;;;6.40;;
45548;SDS011;31270;48.328;10.096;2022-07-22T11:27:48;6.93;;;6.32;;
45548;SDS011;31270;48.328;10.096;2022-07-22T11:30:17;7.55;;;6.68;;
45548;SDS011;31270;48.328;10.096;2022-07-22T11:32:43;7.47;;;6.78;;
45548;SDS011;31270;48.328;10.096;2022-07-22T11:35:11;9.25;;;6.65;;
45548;SDS011;31270;48.328;10.096;2022-07-22T11:37:37;6.57;;;6.00;;
45548;SDS011;31270;48.328;10.096;2022-07-22T11:40:04;7.03;;;6.32;;
45548;SDS011;31270;48.328;10.096;2022-07-22T11:42:32;7.13;;;6.45;;
45548;SDS011;31270;48.328;10.096;2022-07-22T11:44:58;7.75;;;6.78;;
45548;SDS011;31270;48.328;10.096;2022-07-22T11:47:24;7.03;;;6.32;;
45548;SDS011;31270;48.328;10.096;2022-07-22T11:49:51;6.53;;;5.93;;
45548;SDS011;31270;48.328;10.096;2022-07-22T11:52:17;7.15;;;6.45;;
45548;SDS011;31270;48.328;10.096;2022-07-22T11:54:44;7.22;;;6.47;;
45548;SDS011;31270;48.328;10.096;2022-07-22T11:57:11;7.07;;;6.47;;
45548;SDS011;31270;48.328;10.096;2022-07-22T11:59:38;6.47;;;5.88;;
45548;SDS011;31270;48.328;10.096;2022-07-22T12:02:03;7.10;;;5.70;;
45548;SDS011;31270;48.328;10.096;2022-07-22T12:04:34;8.13;;;6.25;;
45548;SDS011;31270;48.328;10.096;2022-07-22T12:07:01;8.50;;;6.15;;
45548;SDS011;31270;48.328;10.096;2022-07-22T12:09:33;7.55;;;6.03;;
45548;SDS011;31270;48.328;10.096;2022-07-22T12:12:00;6.25;;;5.68;;
45548;SDS011;31270;48.328;10.096;2022-07-22T12:14:27;6.82;;;6.13;;
45548;SDS011;31270;48.328;10.096;2022-07-22T12:16:55;7.82;;;6.13;;
45548;SDS011;31270;48.328;10.096;2022-07-22T12:19:21;7.30;;;6.20;;
45548;SDS011;31270;48.328;10.096;2022-07-22T12:21:54;7.13;;;6.43;;
45548;SDS011;31270;48.328;10.096;2022-07-22T12:26:59;6.90;;;6.20;;
45548;SDS011;31270;48.328;10.096;2022-07-22T12:29:27;6.05;;;5.53;;
45548;SDS011;31270;48.328;10.096;2022-07-22T12:31:59;7.28;;;6.18;;
45548;SDS011;31270;48.328;10.096;2022-07-22T12:34:39;6.72;;;6.03;;
45548;SDS011;31270;48.328;10.096;2022-07-22T12:37:13;6.20;;;5.60;;
45548;SDS011;31270;48.328;10.096;2022-07-22T12:42:41;5.90;;;5.32;;
45548;SDS011;31270;48.328;10.096;2022-07-22T12:47:42;5.85;;;5.25;;
45548;SDS011;31270;48.328;10.096;2022-07-22T12:50:15;6.72;;;6.03;;
45548;SDS011;31270;48.328;10.096;2022-07-22T12:52:44;6.10;;;5.50;;
45548;SDS011;31270;48.328;10.096;2022-07-22T12:55:09;7.10;;;5.78;;
45548;SDS011;31270;48.328;10.096;2022-07-22T12:57:35;6.47;;;5.88;;
45548;SDS011;31270;48.328;10.096;2022-07-22T13:00:00;6.18;;;5.63;;
45548;SDS011;31270;48.328;10.096;2022-07-22T13:02:26;6.35;;;5.75;;
45548;SDS011;31270;48.328;10.096;2022-07-22T13:04:51;6.25;;;5.57;;
45548;SDS011;31270;48.328;10.096;2022-07-22T13:07:17;6.45;;;5.85;;
45548;SDS011;31270;48.328;10.096;2022-07-22T13:09:43;6.55;;;5.95;;
45548;SDS011;31270;48.328;10.096;2022-07-22T13:12:08;8.02;;;6.15;;
45548;SDS011;31270;48.328;10.096;2022-07-22T13:14:34;7.03;;;5.70;;
45548;SDS011;31270;48.328;10.096;2022-07-22T13:16:59;9.38;;;5.90;;
45548;SDS011;31270;48.328;10.096;2022-07-22T13:19:25;6.53;;;5.80;;
45548;SDS011;31270;48.328;10.096;2022-07-22T13:21:50;6.47;;;5.32;;
45548;SDS011;31270;48.328;10.096;2022-07-22T13:24:16;7.35;;;5.35;;
45548;SDS011;31270;48.328;10.096;2022-07-22T13:26:41;9.85;;;5.47;;
45548;SDS011;31270;48.328;10.096;2022-07-22T13:29:07;10.98;;;6.35;;
45548;SDS011;31270;48.328;10.096;2022-07-22T13:31:34;6.60;;;6.10;;
45548;SDS011;31270;48.328;10.096;2022-07-22T13:34:00;7.65;;;5.75;;
45548;SDS011;31270;48.328;10.096;2022-07-22T13:36:25;6.82;;;6.13;;
45548;SDS011;31270;48.328;10.096;2022-07-22T13:38:53;6.07;;;5.53;;
45548;SDS011;31270;48.328;10.096;2022-07-22T13:41:19;6.07;;;5.47;;
45548;SDS011;31270;48.328;10.096;2022-07-22T13:43:45;7.90;;;5.47;;
45548;SDS011;31270;48.328;10.096;2022-07-22T13:46:10;6.55;;;5.97;;
45548;SDS011;31270;48.328;10.096;2022-07-22T13:48:36;6.15;;;5.55;;
45548;SDS011;31270;48.328;10.096;2022-07-22T13:51:02;8.57;;;5.72;;
45548;SDS011;31270;48.328;10.096;2022-07-22T13:53:29;9.50;;;6.07;;
45548;SDS011;31270;48.328;10.096;2022-07-22T13:55:55;5.93;;;5.32;;
45548;SDS011;31270;48.328;10.096;2022-07-22T13:58:21;6.38;;;5.75;;
45548;SDS011;31270;48.328;10.096;2022-07-22T14:00:46;7.05;;;6.00;;
45548;SDS011;31270;48.328;10.096;2022-07-22T14:03:12;7.28;;;6.00;;
45548;SDS011;31270;48.328;10.096;2022-07-22T14:05:38;6.80;;;5.45;;
45548;SDS011;31270;48.328;10.096;2022-07-22T14:08:04;6.25;;;5.65;;
45548;SDS011;31270;48.328;10.096;2022-07-22T14:10:29;6.35;;;5.40;;
45548;SDS011;31270;48.328;10.096;2022-07-22T14:12:55;7.43;;;6.03;;
45548;SDS011;31270;48.328;10.096;2022-07-22T14:15:20;6.85;;;6.25;;
45548;SDS011;31270;48.328;10.096;2022-07-22T14:17:46;7.35;;;5.80;;
45548;SDS011;31270;48.328;10.096;2022-07-22T14:20:12;6.72;;;5.68;;
45548;SDS011;31270;48.328;10.096;2022-07-22T14:22:37;6.93;;;6.32;;
45548;SDS011;31270;48.328;10.096;2022-07-22T14:25:03;6.20;;;5.60;;
45548;SDS011;31270;48.328;10.096;2022-07-22T14:27:29;6.85;;;5.97;;
45548;SDS011;31270;48.328;10.096;2022-07-22T14:29:55;6.82;;;5.72;;
45548;SDS011;31270;48.328;10.096;2022-07-22T14:32:20;5.90;;;5.40;;
45548;SDS011;31270;48.328;10.096;2022-07-22T14:34:46;6.82;;;5.70;;
45548;SDS011;31270;48.328;10.096;2022-07-22T14:37:11;6.40;;;5.78;;